sensor_id;sensor_type;location;lat;lon;timestamp;pressure;altitude;pressure_sealevel;temperature;humidity
31717;BME280;18301;51.076;17.046;2024-02-23T00:02:51;97833.69;;;9.83;100.00
31717;BME280;18301;51.076;17.046;2024-02-23T00:07:52;97839.06;;;9.91;100.00
31717;BME280;18301;51.076;17.046;2024-02-23T00:12:54;97836.31;;;10.00;100.00
31717;BME280;18301;51.076;17.046;2024-02-23T00:17:56;97837.50;;;9.97;100.00
31717;BME280;18301;51.076;17.046;2024-02-23T00:22:57;97832.94;;;10.06;100.00
31717;BME280;18301;51.076;17.046;2024-02-23T00:27:59;97836.47;;;10.06;100.00
31717;BME280;18301;51.076;17.046;2024-02-23T00:33:01;97845.75;;;10.04;100.00
31717;BME280;18301;51.076;17.046;2024-02-23T00:38:03;97838.34;;;10.06;100.00
31717;BME280;18301;51.076;17.046;2024-02-23T00:43:05;97847.59;;;10.11;100.00
31717;BME280;18301;51.076;17.046;2024-02-23T00:48:07;97857.81;;;10.24;100.00
31717;BME280;18301;51.076;17.046;2024-02-23T00:53:09;97852.78;;;10.29;100.00
31717;BME280;18301;51.076;17.046;2024-02-23T00:58:10;97852.19;;;10.50;100.00
31717;BME280;18301;51.076;17.046;2024-02-23T01:03:12;97850.75;;;10.31;100.00
31717;BME280;18301;51.076;17.046;2024-02-23T01:08:14;97840.75;;;10.40;100.00
31717;BME280;18301;51.076;17.046;2024-02-23T01:13:16;97825.00;;;10.29;100.00
31717;BME280;18301;51.076;17.046;2024-02-23T01:18:18;97826.50;;;10.31;100.00
31717;BME280;18301;51.076;17.046;2024-02-23T01:23:20;97826.25;;;10.49;100.00
31717;BME280;18301;51.076;17.046;2024-02-23T01:28:22;97827.75;;;10.52;100.00
31717;BME280;18301;51.076;17.046;2024-02-23T01:33:23;97830.88;;;10.32;100.00
31717;BME280;18301;51.076;17.046;2024-02-23T01:38:25;97830.84;;;10.41;100.00
31717;BME280;18301;51.076;17.046;2024-02-23T01:43:32;97825.28;;;10.34;100.00
31717;BME280;18301;51.076;17.046;2024-02-23T01:48:34;97815.38;;;10.18;100.00
31717;BME280;18301;51.076;17.046;2024-02-23T01:53:36;97809.66;;;10.21;100.00
31717;BME280;18301;51.076;17.046;2024-02-23T01:58:38;97810.00;;;10.18;100.00
31717;BME280;18301;51.076;17.046;2024-02-23T02:03:40;97791.81;;;10.20;100.00
31717;BME280;18301;51.076;17.046;2024-02-23T02:08:42;97795.22;;;10.06;100.00
31717;BME280;18301;51.076;17.046;2024-02-23T02:13:44;97786.41;;;10.20;100.00
31717;BME280;18301;51.076;17.046;2024-02-23T02:18:46;97799.91;;;10.20;99.51
31717;BME280;18301;51.076;17.046;2024-02-23T02:23:47;97825.84;;;10.29;98.90
31717;BME280;18301;51.076;17.046;2024-02-23T02:28:49;97834.06;;;10.36;97.25
31717;BME280;18301;51.076;17.046;2024-02-23T02:33:51;97845.41;;;10.07;99.91
31717;BME280;18301;51.076;17.046;2024-02-23T02:38:52;97847.78;;;10.02;99.92
31717;BME280;18301;51.076;17.046;2024-02-23T02:43:54;97852.13;;;10.11;98.67
31717;BME280;18301;51.076;17.046;2024-02-23T02:48:56;97853.47;;;10.15;98.44
31717;BME280;18301;51.076;17.046;2024-02-23T02:53:58;97850.81;;;10.07;98.70
31717;BME280;18301;51.076;17.046;2024-02-23T02:58:59;97855.19;;;10.00;99.42
31717;BME280;18301;51.076;17.046;2024-02-23T03:04:01;97862.88;;;10.27;97.20
31717;BME280;18301;51.076;17.046;2024-02-23T03:09:03;97860.88;;;10.29;97.62
31717;BME280;18301;51.076;17.046;2024-02-23T03:14:05;97876.97;;;10.46;96.29
31717;BME280;18301;51.076;17.046;2024-02-23T03:19:06;97884.94;;;10.31;96.50
31717;BME280;18301;51.076;17.046;2024-02-23T03:24:09;97865.56;;;10.35;96.72
31717;BME280;18301;51.076;17.046;2024-02-23T03:29:11;97863.91;;;10.34;96.46
31717;BME280;18301;51.076;17.046;2024-02-23T03:34:13;97882.09;;;10.32;96.96
31717;BME280;18301;51.076;17.046;2024-02-23T03:39:15;97918.63;;;10.35;96.54
31717;BME280;18301;51.076;17.046;2024-02-23T03:44:16;97929.91;;;10.39;96.84
31717;BME280;18301;51.076;17.046;2024-02-23T03:49:18;97947.41;;;10.43;96.84
31717;BME280;18301;51.076;17.046;2024-02-23T03:54:20;97957.22;;;10.35;97.42
31717;BME280;18301;51.076;17.046;2024-02-23T03:59:21;97980.78;;;10.33;97.18
31717;BME280;18301;51.076;17.046;2024-02-23T04:04:23;97984.84;;;10.29;97.95
31717;BME280;18301;51.076;17.046;2024-02-23T04:09:25;97991.22;;;10.36;97.22
31717;BME280;18301;51.076;17.046;2024-02-23T04:14:27;97995.28;;;10.32;97.42
31717;BME280;18301;51.076;17.046;2024-02-23T04:19:28;98007.09;;;10.31;96.90
31717;BME280;18301;51.076;17.046;2024-02-23T04:24:30;98005.06;;;10.25;97.84
31717;BME280;18301;51.076;17.046;2024-02-23T04:29:32;98006.75;;;10.26;97.28
31717;BME280;18301;51.076;17.046;2024-02-23T04:34:34;97990.91;;;10.40;95.82
31717;BME280;18301;51.076;17.046;2024-02-23T04:39:36;98009.75;;;10.23;96.31
31717;BME280;18301;51.076;17.046;2024-02-23T04:44:41;98004.41;;;10.31;96.13
31717;BME280;18301;51.076;17.046;2024-02-23T04:49:44;97996.47;;;10.13;96.04
31717;BME280;18301;51.076;17.046;2024-02-23T04:54:45;98008.75;;;10.16;95.76
31717;BME280;18301;51.076;17.046;2024-02-23T04:59:47;98011.28;;;10.26;95.76
31717;BME280;18301;51.076;17.046;2024-02-23T05:04:48;98027.44;;;10.26;96.05
31717;BME280;18301;51.076;17.046;2024-02-23T05:09:50;98036.03;;;10.21;95.79
31717;BME280;18301;51.076;17.046;2024-02-23T05:14:52;98050.88;;;10.33;95.34
31717;BME280;18301;51.076;17.046;2024-02-23T05:19:54;98051.38;;;10.37;95.36
31717;BME280;18301;51.076;17.046;2024-02-23T05:24:55;98057.28;;;10.41;94.98
31717;BME280;18301;51.076;17.046;2024-02-23T05:29:57;98073.28;;;10.34;95.76
31717;BME280;18301;51.076;17.046;2024-02-23T05:34:59;98083.22;;;10.33;95.65
31717;BME280;18301;51.076;17.046;2024-02-23T05:40:01;98101.78;;;10.28;96.12
31717;BME280;18301;51.076;17.046;2024-02-23T05:45:09;98116.22;;;10.19;97.00
31717;BME280;18301;51.076;17.046;2024-02-23T05:50:11;98123.34;;;10.28;96.43
31717;BME280;18301;51.076;17.046;2024-02-23T05:55:13;98126.34;;;10.25;96.32
31717;BME280;18301;51.076;17.046;2024-02-23T06:00:15;98134.38;;;10.09;98.23
31717;BME280;18301;51.076;17.046;2024-02-23T06:05:20;98144.16;;;10.18;97.82
31717;BME280;18301;51.076;17.046;2024-02-23T06:10:22;98164.72;;;10.19;97.18
31717;BME280;18301;51.076;17.046;2024-02-23T06:15:24;98176.66;;;10.25;96.91
31717;BME280;18301;51.076;17.046;2024-02-23T06:20:25;98178.38;;;10.26;95.83
31717;BME280;18301;51.076;17.046;2024-02-23T06:25:27;98195.09;;;10.29;94.74
31717;BME280;18301;51.076;17.046;2024-02-23T06:30:29;98189.88;;;10.36;93.52
31717;BME280;18301;51.076;17.046;2024-02-23T06:35:31;98206.22;;;10.43;92.26
31717;BME280;18301;51.076;17.046;2024-02-23T06:40:33;98211.81;;;10.57;92.01
31717;BME280;18301;51.076;17.046;2024-02-23T06:45:52;98221.06;;;10.55;90.85
31717;BME280;18301;51.076;17.046;2024-02-23T06:50:54;98223.09;;;10.61;89.08
31717;BME280;18301;51.076;17.046;2024-02-23T06:55:56;98229.19;;;10.79;88.23
31717;BME280;18301;51.076;17.046;2024-02-23T07:00:57;98232.25;;;10.85;87.04
31717;BME280;18301;51.076;17.046;2024-02-23T07:05:59;98241.66;;;10.72;86.58
31717;BME280;18301;51.076;17.046;2024-02-23T07:11:01;98245.03;;;10.82;85.16
31717;BME280;18301;51.076;17.046;2024-02-23T07:16:03;98260.06;;;10.85;84.77
31717;BME280;18301;51.076;17.046;2024-02-23T07:21:05;98258.88;;;10.96;85.03
31717;BME280;18301;51.076;17.046;2024-02-23T07:26:07;98272.53;;;10.86;83.70
31717;BME280;18301;51.076;17.046;2024-02-23T07:31:10;98267.97;;;10.87;84.38
31717;BME280;18301;51.076;17.046;2024-02-23T07:36:15;98270.69;;;11.03;84.89
31717;BME280;18301;51.076;17.046;2024-02-23T07:41:17;98278.47;;;11.06;84.24
31717;BME280;18301;51.076;17.046;2024-02-23T07:46:19;98284.53;;;11.16;84.45
31717;BME280;18301;51.076;17.046;2024-02-23T07:51:22;98291.78;;;11.16;82.46
31717;BME280;18301;51.076;17.046;2024-02-23T07:56:23;98300.38;;;11.19;83.11
31717;BME280;18301;51.076;17.046;2024-02-23T08:01:25;98302.72;;;11.47;82.74
31717;BME280;18301;51.076;17.046;2024-02-23T08:06:27;98321.28;;;11.42;82.87
31717;BME280;18301;51.076;17.046;2024-02-23T08:11:29;98324.31;;;11.63;81.06
31717;BME280;18301;51.076;17.046;2024-02-23T08:16:34;98345.28;;;11.86;81.04
31717;BME280;18301;51.076;17.046;2024-02-23T08:21:35;98347.94;;;11.94;79.48
31717;BME280;18301;51.076;17.046;2024-02-23T08:26:37;98347.25;;;12.00;78.82
31717;BME280;18301;51.076;17.046;2024-02-23T08:31:39;98350.97;;;11.99;77.45
31717;BME280;18301;51.076;17.046;2024-02-23T08:36:43;98355.84;;;12.12;78.59
31717;BME280;18301;51.076;17.046;2024-02-23T08:41:45;98369.22;;;11.81;79.23
31717;BME280;18301;51.076;17.046;2024-02-23T08:46:47;98400.66;;;11.73;80.56
31717;BME280;18301;51.076;17.046;2024-02-23T08:51:49;98414.31;;;12.05;71.26
31717;BME280;18301;51.076;17.046;2024-02-23T08:56:51;98440.50;;;11.71;60.34
31717;BME280;18301;51.076;17.046;2024-02-23T09:01:53;98443.19;;;11.71;59.81
31717;BME280;18301;51.076;17.046;2024-02-23T09:06:54;98446.25;;;11.93;60.92
31717;BME280;18301;51.076;17.046;2024-02-23T09:11:56;98457.34;;;11.57;62.56
31717;BME280;18301;51.076;17.046;2024-02-23T09:16:58;98467.00;;;11.60;64.71
31717;BME280;18301;51.076;17.046;2024-02-23T09:22:00;98483.03;;;11.53;61.67
31717;BME280;18301;51.076;17.046;2024-02-23T09:27:03;98468.00;;;11.59;65.32
31717;BME280;18301;51.076;17.046;2024-02-23T09:32:05;98483.38;;;11.74;64.91
31717;BME280;18301;51.076;17.046;2024-02-23T09:37:06;98487.66;;;12.02;63.18
31717;BME280;18301;51.076;17.046;2024-02-23T09:42:10;98484.78;;;11.95;59.86
31717;BME280;18301;51.076;17.046;2024-02-23T09:47:13;98496.94;;;11.99;62.01
31717;BME280;18301;51.076;17.046;2024-02-23T09:52:16;98504.03;;;12.00;59.19
31717;BME280;18301;51.076;17.046;2024-02-23T09:57:20;98504.38;;;12.13;62.27
31717;BME280;18301;51.076;17.046;2024-02-23T10:02:22;98519.56;;;12.06;59.65
31717;BME280;18301;51.076;17.046;2024-02-23T10:07:24;98516.00;;;11.97;60.08
31717;BME280;18301;51.076;17.046;2024-02-23T10:12:26;98537.81;;;11.96;58.32
31717;BME280;18301;51.076;17.046;2024-02-23T10:17:28;98536.63;;;12.07;59.70
31717;BME280;18301;51.076;17.046;2024-02-23T10:22:32;98555.06;;;12.11;58.46
31717;BME280;18301;51.076;17.046;2024-02-23T10:27:33;98560.63;;;12.10;56.89
31717;BME280;18301;51.076;17.046;2024-02-23T10:32:36;98563.88;;;12.13;60.38
31717;BME280;18301;51.076;17.046;2024-02-23T10:37:43;98574.25;;;11.84;60.42
31717;BME280;18301;51.076;17.046;2024-02-23T10:42:49;98565.66;;;11.88;64.22
31717;BME280;18301;51.076;17.046;2024-02-23T10:47:53;98571.94;;;11.89;65.67
31717;BME280;18301;51.076;17.046;2024-02-23T10:52:56;98564.66;;;11.97;64.86
31717;BME280;18301;51.076;17.046;2024-02-23T10:57:58;98555.41;;;12.08;65.74
31717;BME280;18301;51.076;17.046;2024-02-23T11:03:01;98565.88;;;12.11;65.17
31717;BME280;18301;51.076;17.046;2024-02-23T11:08:06;98564.53;;;12.24;65.87
31717;BME280;18301;51.076;17.046;2024-02-23T11:13:09;98566.91;;;12.35;65.25
31717;BME280;18301;51.076;17.046;2024-02-23T11:18:30;98569.59;;;12.43;65.55
31717;BME280;18301;51.076;17.046;2024-02-23T11:23:42;98563.31;;;12.67;64.50
31717;BME280;18301;51.076;17.046;2024-02-23T11:33:54;98538.06;;;12.83;61.98
31717;BME280;18301;51.076;17.046;2024-02-23T11:38:57;98541.16;;;12.72;59.31
31717;BME280;18301;51.076;17.046;2024-02-23T11:43:59;98521.94;;;12.50;62.09
31717;BME280;18301;51.076;17.046;2024-02-23T11:49:01;98536.44;;;12.65;63.13
31717;BME280;18301;51.076;17.046;2024-02-23T11:54:04;98543.53;;;12.66;61.31
31717;BME280;18301;51.076;17.046;2024-02-23T11:59:05;98555.19;;;12.67;63.30
31717;BME280;18301;51.076;17.046;2024-02-23T12:04:07;98581.25;;;12.43;62.43
31717;BME280;18301;51.076;17.046;2024-02-23T12:09:09;98588.19;;;12.21;63.57
31717;BME280;18301;51.076;17.046;2024-02-23T12:14:14;98588.19;;;12.05;63.89
31717;BME280;18301;51.076;17.046;2024-02-23T12:19:15;98603.00;;;11.85;63.74
31717;BME280;18301;51.076;17.046;2024-02-23T12:24:17;98620.13;;;11.59;62.63
31717;BME280;18301;51.076;17.046;2024-02-23T12:29:19;98628.59;;;11.64;64.63
31717;BME280;18301;51.076;17.046;2024-02-23T12:34:21;98624.19;;;11.63;66.54
31717;BME280;18301;51.076;17.046;2024-02-23T12:39:22;98627.53;;;11.57;66.35
31717;BME280;18301;51.076;17.046;2024-02-23T12:44:24;98625.56;;;11.75;66.58
31717;BME280;18301;51.076;17.046;2024-02-23T12:49:26;98618.50;;;11.74;66.45
31717;BME280;18301;51.076;17.046;2024-02-23T12:54:28;98604.38;;;11.89;66.35
31717;BME280;18301;51.076;17.046;2024-02-23T12:59:29;98613.84;;;11.93;66.90
31717;BME280;18301;51.076;17.046;2024-02-23T13:04:31;98628.28;;;11.75;67.07
31717;BME280;18301;51.076;17.046;2024-02-23T13:09:33;98632.34;;;11.80;67.27
31717;BME280;18301;51.076;17.046;2024-02-23T13:14:35;98642.19;;;11.46;68.85
31717;BME280;18301;51.076;17.046;2024-02-23T13:19:37;98637.25;;;11.34;67.48
31717;BME280;18301;51.076;17.046;2024-02-23T13:24:39;98634.88;;;11.39;70.58
31717;BME280;18301;51.076;17.046;2024-02-23T13:29:41;98629.09;;;11.25;72.55
31717;BME280;18301;51.076;17.046;2024-02-23T13:34:43;98639.88;;;11.25;72.70
31717;BME280;18301;51.076;17.046;2024-02-23T13:39:45;98647.41;;;11.14;73.39
31717;BME280;18301;51.076;17.046;2024-02-23T13:44:46;98658.72;;;11.17;71.77
31717;BME280;18301;51.076;17.046;2024-02-23T13:49:48;98654.28;;;11.08;72.68
31717;BME280;18301;51.076;17.046;2024-02-23T13:54:50;98649.66;;;11.18;71.82
31717;BME280;18301;51.076;17.046;2024-02-23T13:59:52;98640.31;;;11.13;71.24
31717;BME280;18301;51.076;17.046;2024-02-23T14:04:59;98639.44;;;11.04;72.41
31717;BME280;18301;51.076;17.046;2024-02-23T14:10:03;98642.19;;;11.12;72.16
31717;BME280;18301;51.076;17.046;2024-02-23T14:15:05;98658.06;;;11.15;72.50
31717;BME280;18301;51.076;17.046;2024-02-23T14:20:07;98660.75;;;11.15;72.98
31717;BME280;18301;51.076;17.046;2024-02-23T14:25:09;98652.06;;;11.29;71.90
31717;BME280;18301;51.076;17.046;2024-02-23T14:30:11;98649.00;;;11.24;72.09
31717;BME280;18301;51.076;17.046;2024-02-23T14:35:13;98656.72;;;11.19;71.63
31717;BME280;18301;51.076;17.046;2024-02-23T14:40:15;98672.34;;;11.07;72.07
31717;BME280;18301;51.076;17.046;2024-02-23T14:45:16;98661.91;;;11.13;71.30
31717;BME280;18301;51.076;17.046;2024-02-23T14:50:18;98670.66;;;11.06;72.32
31717;BME280;18301;51.076;17.046;2024-02-23T14:55:20;98694.34;;;10.95;72.69
31717;BME280;18301;51.076;17.046;2024-02-23T15:00:21;98702.41;;;10.69;72.60
31717;BME280;18301;51.076;17.046;2024-02-23T15:05:23;98703.88;;;10.63;73.14
31717;BME280;18301;51.076;17.046;2024-02-23T15:10:25;98716.66;;;10.61;73.07
31717;BME280;18301;51.076;17.046;2024-02-23T15:15:27;98724.63;;;10.63;73.04
31717;BME280;18301;51.076;17.046;2024-02-23T15:20:28;98722.63;;;10.47;73.25
31717;BME280;18301;51.076;17.046;2024-02-23T15:25:30;98704.31;;;10.76;72.36
31717;BME280;18301;51.076;17.046;2024-02-23T15:30:32;98691.06;;;10.65;71.62
31717;BME280;18301;51.076;17.046;2024-02-23T15:35:35;98695.31;;;10.50;72.63
31717;BME280;18301;51.076;17.046;2024-02-23T15:40:37;98694.34;;;10.51;73.19
31717;BME280;18301;51.076;17.046;2024-02-23T15:45:39;98680.78;;;10.43;73.41
31717;BME280;18301;51.076;17.046;2024-02-23T15:50:41;98683.19;;;10.18;75.09
31717;BME280;18301;51.076;17.046;2024-02-23T15:56:02;98679.88;;;10.06;75.20
31717;BME280;18301;51.076;17.046;2024-02-23T16:01:05;98672.25;;;10.02;75.34
31717;BME280;18301;51.076;17.046;2024-02-23T16:06:07;98686.44;;;10.04;75.11
31717;BME280;18301;51.076;17.046;2024-02-23T16:11:13;98696.69;;;9.63;76.69
31717;BME280;18301;51.076;17.046;2024-02-23T16:16:16;98690.78;;;9.87;76.08
31717;BME280;18301;51.076;17.046;2024-02-23T16:21:18;98703.59;;;9.75;75.76
31717;BME280;18301;51.076;17.046;2024-02-23T16:26:20;98702.63;;;9.66;76.81
31717;BME280;18301;51.076;17.046;2024-02-23T16:31:22;98709.06;;;9.56;78.67
31717;BME280;18301;51.076;17.046;2024-02-23T16:36:23;98706.25;;;9.48;77.79
31717;BME280;18301;51.076;17.046;2024-02-23T16:41:25;98718.25;;;9.63;78.32
31717;BME280;18301;51.076;17.046;2024-02-23T16:46:27;98723.13;;;9.50;79.29
31717;BME280;18301;51.076;17.046;2024-02-23T16:51:29;98723.72;;;9.43;79.50
31717;BME280;18301;51.076;17.046;2024-02-23T16:56:30;98736.06;;;9.36;79.93
31717;BME280;18301;51.076;17.046;2024-02-23T17:01:32;98737.72;;;9.47;79.49
31717;BME280;18301;51.076;17.046;2024-02-23T17:06:34;98725.22;;;9.56;78.93
31717;BME280;18301;51.076;17.046;2024-02-23T17:11:36;98735.16;;;9.55;78.72
31717;BME280;18301;51.076;17.046;2024-02-23T17:16:38;98729.22;;;9.52;78.86
31717;BME280;18301;51.076;17.046;2024-02-23T17:21:40;98739.75;;;9.35;81.15
31717;BME280;18301;51.076;17.046;2024-02-23T17:26:42;98747.56;;;9.29;82.25
31717;BME280;18301;51.076;17.046;2024-02-23T17:31:43;98739.22;;;9.22;81.62
31717;BME280;18301;51.076;17.046;2024-02-23T17:36:45;98743.22;;;9.18;82.46
31717;BME280;18301;51.076;17.046;2024-02-23T17:41:47;98729.28;;;9.32;81.13
31717;BME280;18301;51.076;17.046;2024-02-23T17:46:49;98722.06;;;9.23;81.85
31717;BME280;18301;51.076;17.046;2024-02-23T17:51:51;98729.47;;;9.21;82.96
31717;BME280;18301;51.076;17.046;2024-02-23T17:56:52;98733.97;;;9.20;82.81
31717;BME280;18301;51.076;17.046;2024-02-23T18:01:56;98737.81;;;9.18;83.00
31717;BME280;18301;51.076;17.046;2024-02-23T18:06:57;98732.72;;;9.15;83.66
31717;BME280;18301;51.076;17.046;2024-02-23T18:12:01;98739.56;;;8.99;84.32
31717;BME280;18301;51.076;17.046;2024-02-23T18:17:02;98732.50;;;8.79;85.29
31717;BME280;18301;51.076;17.046;2024-02-23T18:22:05;98726.69;;;8.84;85.67
31717;BME280;18301;51.076;17.046;2024-02-23T18:27:07;98729.66;;;8.90;85.16
31717;BME280;18301;51.076;17.046;2024-02-23T18:32:09;98718.59;;;8.93;85.29
31717;BME280;18301;51.076;17.046;2024-02-23T18:37:13;98722.28;;;8.92;85.42
31717;BME280;18301;51.076;17.046;2024-02-23T18:42:15;98711.81;;;8.99;86.21
31717;BME280;18301;51.076;17.046;2024-02-23T18:47:17;98726.69;;;8.93;86.50
31717;BME280;18301;51.076;17.046;2024-02-23T18:52:19;98728.94;;;8.88;87.09
31717;BME280;18301;51.076;17.046;2024-02-23T18:57:20;98720.59;;;8.91;88.68
31717;BME280;18301;51.076;17.046;2024-02-23T19:02:22;98727.69;;;8.73;88.53
31717;BME280;18301;51.076;17.046;2024-02-23T19:07:24;98723.41;;;8.80;88.69
31717;BME280;18301;51.076;17.046;2024-02-23T19:12:25;98734.31;;;8.88;89.48
31717;BME280;18301;51.076;17.046;2024-02-23T19:17:28;98725.97;;;8.91;89.91
31717;BME280;18301;51.076;17.046;2024-02-23T19:22:31;98721.97;;;8.95;90.84
31717;BME280;18301;51.076;17.046;2024-02-23T19:27:33;98725.69;;;8.94;91.47
31717;BME280;18301;51.076;17.046;2024-02-23T19:32:38;98712.38;;;9.03;91.38
31717;BME280;18301;51.076;17.046;2024-02-23T19:37:40;98718.84;;;9.10;91.13
31717;BME280;18301;51.076;17.046;2024-02-23T19:42:42;98709.81;;;8.91;91.54
31717;BME280;18301;51.076;17.046;2024-02-23T19:47:44;98695.84;;;8.78;91.68
31717;BME280;18301;51.076;17.046;2024-02-23T19:52:46;98693.72;;;8.82;92.58
31717;BME280;18301;51.076;17.046;2024-02-23T19:57:47;98681.09;;;8.82;93.05
31717;BME280;18301;51.076;17.046;2024-02-23T20:02:49;98677.00;;;8.78;92.69
31717;BME280;18301;51.076;17.046;2024-02-23T20:07:54;98681.13;;;8.63;94.52
31717;BME280;18301;51.076;17.046;2024-02-23T20:12:56;98680.84;;;8.66;94.10
31717;BME280;18301;51.076;17.046;2024-02-23T20:17:58;98680.41;;;8.70;93.71
31717;BME280;18301;51.076;17.046;2024-02-23T20:23:01;98669.81;;;8.69;93.39
31717;BME280;18301;51.076;17.046;2024-02-23T20:28:03;98664.84;;;8.55;93.96
31717;BME280;18301;51.076;17.046;2024-02-23T20:33:05;98667.84;;;8.51;94.50
31717;BME280;18301;51.076;17.046;2024-02-23T20:38:07;98662.03;;;8.56;94.95
31717;BME280;18301;51.076;17.046;2024-02-23T20:43:09;98651.13;;;8.58;95.55
31717;BME280;18301;51.076;17.046;2024-02-23T20:48:11;98644.66;;;8.50;95.86
31717;BME280;18301;51.076;17.046;2024-02-23T20:53:13;98639.56;;;8.47;96.57
31717;BME280;18301;51.076;17.046;2024-02-23T20:58:14;98646.31;;;8.32;97.20
31717;BME280;18301;51.076;17.046;2024-02-23T21:03:17;98640.41;;;8.38;97.22
31717;BME280;18301;51.076;17.046;2024-02-23T21:08:22;98634.44;;;8.54;97.34
31717;BME280;18301;51.076;17.046;2024-02-23T21:13:24;98624.13;;;8.40;97.39
31717;BME280;18301;51.076;17.046;2024-02-23T21:18:26;98641.09;;;8.40;97.39
31717;BME280;18301;51.076;17.046;2024-02-23T21:23:28;98632.16;;;8.49;97.13
31717;BME280;18301;51.076;17.046;2024-02-23T21:28:30;98625.22;;;8.37;97.25
31717;BME280;18301;51.076;17.046;2024-02-23T21:33:31;98606.88;;;8.23;97.74
31717;BME280;18301;51.076;17.046;2024-02-23T21:38:33;98603.75;;;7.98;99.54
31717;BME280;18301;51.076;17.046;2024-02-23T21:43:36;98587.94;;;7.95;99.26
31717;BME280;18301;51.076;17.046;2024-02-23T21:48:39;98591.56;;;7.94;100.00
31717;BME280;18301;51.076;17.046;2024-02-23T21:53:41;98588.19;;;8.12;99.68
31717;BME280;18301;51.076;17.046;2024-02-23T21:58:43;98580.84;;;8.23;99.16
31717;BME280;18301;51.076;17.046;2024-02-23T22:03:45;98587.63;;;8.27;99.37
31717;BME280;18301;51.076;17.046;2024-02-23T22:08:48;98581.41;;;8.07;99.64
31717;BME280;18301;51.076;17.046;2024-02-23T22:13:50;98572.91;;;8.22;100.00
31717;BME280;18301;51.076;17.046;2024-02-23T22:18:52;98565.25;;;8.37;99.25
31717;BME280;18301;51.076;17.046;2024-02-23T22:23:54;98565.84;;;8.40;99.78
31717;BME280;18301;51.076;17.046;2024-02-23T22:28:56;98553.13;;;8.42;99.53
31717;BME280;18301;51.076;17.046;2024-02-23T22:33:58;98553.66;;;8.36;99.58
31717;BME280;18301;51.076;17.046;2024-02-23T22:38:59;98542.38;;;8.42;99.97
31717;BME280;18301;51.076;17.046;2024-02-23T22:44:02;98541.06;;;8.46;99.92
31717;BME280;18301;51.076;17.046;2024-02-23T22:49:04;98530.19;;;8.48;100.00
31717;BME280;18301;51.076;17.046;2024-02-23T22:54:06;98534.97;;;8.54;100.00
31717;BME280;18301;51.076;17.046;2024-02-23T22:59:08;98531.31;;;8.45;100.00
31717;BME280;18301;51.076;17.046;2024-02-23T23:04:12;98526.53;;;8.39;100.00
31717;BME280;18301;51.076;17.046;2024-02-23T23:09:14;98515.75;;;8.49;99.83
31717;BME280;18301;51.076;17.046;2024-02-23T23:14:16;98519.16;;;8.51;99.90
31717;BME280;18301;51.076;17.046;2024-02-23T23:19:18;98516.78;;;8.38;100.00
31717;BME280;18301;51.076;17.046;2024-02-23T23:24:21;98501.03;;;8.43;100.00
31717;BME280;18301;51.076;17.046;2024-02-23T23:29:23;98491.59;;;8.39;100.00
31717;BME280;18301;51.076;17.046;2024-02-23T23:34:26;98497.63;;;8.51;99.30
31717;BME280;18301;51.076;17.046;2024-02-23T23:39:28;98474.34;;;8.32;100.00
31717;BME280;18301;51.076;17.046;2024-02-23T23:44:30;98476.19;;;8.32;100.00
31717;BME280;18301;51.076;17.046;2024-02-23T23:49:31;98453.22;;;8.37;100.00
31717;BME280;18301;51.076;17.046;2024-02-23T23:54:33;98444.22;;;8.38;100.00
31717;BME280;18301;51.076;17.046;2024-02-23T23:59:35;98437.84;;;8.39;100.00
